Time;durP1;ratioP1;P1;durP2;ratioP2;P2;SDS_P1;SDS_P2;PMS_P1;PMS_P2;Temp;Humidity;BMP_temperature;BMP_pressure;BME280_temperature;BME280_humidity;BME280_pressure;Samples;Min_cycle;Max_cycle;Signal;HPM_P1;HPM_P2
2022/06/13 00:01:39;;;;;;;25.80;23.27;;;13.50;99.90;;;;;;5017640;28;20040;-72
2022/06/13 00:04:07;;;;;;;25.80;23.65;;;13.40;99.90;;;;;;5017332;28;20049;-72
2022/06/13 00:06:35;;;;;;;23.90;22.10;;;13.30;99.90;;;;;;5022479;28;20650;-71
2022/06/13 00:09:05;;;;;;;25.48;23.38;;;13.30;99.90;;;;;;5024371;28;20063;-72
2022/06/13 00:11:32;;;;;;;25.02;22.88;;;13.00;99.90;;;;;;5025161;28;20039;-72
2022/06/13 00:13:59;;;;;;;25.00;22.90;;;12.90;99.90;;;;;;5025470;28;20049;-72
2022/06/13 00:16:26;;;;;;;25.05;22.80;;;12.80;99.90;;;;;;5024760;28;20335;-72
2022/06/13 00:18:54;;;;;;;23.73;21.85;;;12.70;99.90;;;;;;5021721;28;20073;-71
2022/06/13 00:21:32;;;;;;;24.77;22.52;;;12.60;99.90;;;;;;5017685;28;20084;-72
2022/06/13 00:24:01;;;;;;;24.25;22.20;;;12.50;99.90;;;;;;5023810;28;20130;-72
2022/06/13 00:26:30;;;;;;;23.65;21.70;;;12.40;99.90;;;;;;5015764;28;20232;-72
2022/06/13 00:28:58;;;;;;;23.83;21.52;;;12.30;99.90;;;;;;5011639;28;20583;-73
2022/06/13 00:31:25;;;;;;;23.48;21.35;;;12.30;99.90;;;;;;5009073;28;20137;-71
2022/06/13 00:33:53;;;;;;;24.05;21.80;;;12.30;99.90;;;;;;5012689;28;20061;-72
2022/06/13 00:36:23;;;;;;;22.42;20.55;;;12.00;99.90;;;;;;5008715;28;20409;-71
2022/06/13 00:38:51;;;;;;;22.75;20.75;;;11.90;99.90;;;;;;5020177;28;20046;-72
2022/06/13 00:41:24;;;;;;;22.52;20.88;;;11.80;99.90;;;;;;5004834;28;20412;-72
2022/06/13 00:43:52;;;;;;;22.70;20.70;;;11.80;99.90;;;;;;5005903;28;20050;-72
2022/06/13 00:46:29;;;;;;;23.50;21.58;;;11.60;99.90;;;;;;5016413;28;20125;-72
2022/06/13 00:49:01;;;;;;;23.33;21.65;;;11.50;99.90;;;;;;5021487;28;20133;-71
2022/06/13 00:51:30;;;;;;;22.15;20.08;;;11.50;99.90;;;;;;5019782;28;20546;-70
2022/06/13 00:53:58;;;;;;;22.30;20.35;;;11.60;99.90;;;;;;5022614;28;20096;-74
2022/06/13 00:56:28;;;;;;;19.52;17.90;;;11.50;99.90;;;;;;5021829;28;20037;-74
2022/06/13 00:59:00;;;;;;;19.05;17.85;;;11.40;99.90;;;;;;5015271;28;20534;-74
2022/06/13 01:01:30;;;;;;;20.63;18.83;;;11.30;99.90;;;;;;5011437;28;20037;-74
2022/06/13 01:04:01;;;;;;;20.40;18.55;;;11.30;99.90;;;;;;5005544;28;20046;-73
2022/06/13 01:06:32;;;;;;;18.55;16.67;;;11.20;99.90;;;;;;5003344;28;20050;-74
2022/06/13 01:09:03;;;;;;;19.77;17.77;;;11.10;99.90;;;;;;5021798;28;20099;-72
2022/06/13 01:11:30;;;;;;;21.30;19.02;;;11.10;99.90;;;;;;5022803;28;20509;-71
2022/06/13 01:14:05;;;;;;;21.25;19.65;;;11.10;99.90;;;;;;5015575;28;20050;-74
2022/06/13 01:16:48;;;;;;;21.17;19.10;;;11.00;99.90;;;;;;5002524;28;20596;-71
2022/06/13 01:19:17;;;;;;;21.80;19.92;;;11.00;99.90;;;;;;5018334;28;20044;-72
2022/06/13 01:22:19;;;;;;;20.60;18.90;;;10.90;99.90;;;;;;5020857;28;20478;-72
2022/06/13 01:24:49;;;;;;;22.52;20.20;;;10.90;99.90;;;;;;5018411;28;20108;-72
2022/06/13 01:27:34;;;;;;;20.95;19.13;;;10.90;99.90;;;;;;5004548;28;20578;-72
2022/06/13 01:30:06;;;;;;;21.55;19.50;;;11.00;99.90;;;;;;5014111;28;20193;-71
2022/06/13 01:32:42;;;;;;;21.38;19.50;;;10.90;99.90;;;;;;5023826;28;20058;-71
2022/06/13 01:35:28;;;;;;;20.63;18.73;;;10.90;99.90;;;;;;5004602;28;20115;-72
2022/06/13 01:38:01;;;;;;;20.52;18.52;;;11.00;99.90;;;;;;5022370;28;20666;-72
2022/06/13 01:40:49;;;;;;;21.15;18.90;;;11.00;99.90;;;;;;5006274;28;20070;-72
2022/06/13 01:43:35;;;;;;;21.17;19.10;;;10.90;99.90;;;;;;5011153;28;20422;-73
2022/06/13 01:46:12;;;;;;;20.75;18.65;;;10.80;99.90;;;;;;5011677;28;20500;-71
2022/06/13 01:48:57;;;;;;;20.83;18.83;;;10.80;99.90;;;;;;5013305;28;20140;-73
2022/06/13 01:51:48;;;;;;;20.98;18.92;;;10.80;99.90;;;;;;5006504;28;20477;-71
2022/06/13 01:54:44;;;;;;;20.60;19.17;;;10.80;99.90;;;;;;5002316;28;20642;-72
2022/06/13 01:57:27;;;;;;;21.30;19.52;;;10.70;99.90;;;;;;5006391;28;20038;-72
2022/06/13 02:00:10;;;;;;;21.58;19.85;;;10.60;99.90;;;;;;5006624;28;20528;-72
2022/06/13 02:02:48;;;;;;;22.40;20.27;;;10.50;99.90;;;;;;5002902;28;20046;-72
2022/06/13 02:05:29;;;;;;;20.98;19.05;;;10.50;99.90;;;;;;5001765;28;20552;-72
2022/06/13 02:08:01;;;;;;;21.45;19.63;;;10.50;99.90;;;;;;5002014;28;20069;-72
2022/06/13 02:10:56;;;;;;;20.52;18.67;;;10.50;99.90;;;;;;5019942;28;20543;-72
2022/06/13 02:13:36;;;;;;;22.42;19.58;;;10.40;99.90;;;;;;5019994;28;20586;-72
2022/06/13 02:16:14;;;;;;;20.67;18.75;;;10.40;99.90;;;;;;5016226;28;20076;-72
2022/06/13 02:18:50;;;;;;;21.45;19.30;;;10.30;99.90;;;;;;5021873;28;20056;-72
2022/06/13 02:21:23;;;;;;;21.75;19.63;;;10.20;99.90;;;;;;5005026;28;20095;-72
2022/06/13 02:23:57;;;;;;;19.95;18.20;;;10.20;99.90;;;;;;5003467;28;20586;-73
2022/06/13 02:26:31;;;;;;;22.02;19.73;;;10.20;99.90;;;;;;5004110;28;20065;-72
2022/06/13 02:29:19;;;;;;;19.90;18.38;;;10.00;99.90;;;;;;5012053;28;20049;-72
2022/06/13 02:31:54;;;;;;;21.50;19.67;;;10.10;99.90;;;;;;5012440;28;20111;-72
2022/06/13 02:34:46;;;;;;;21.92;19.33;;;9.90;99.90;;;;;;5021605;28;20081;-71
2022/06/13 02:37:25;;;;;;;20.83;18.92;;;9.90;99.90;;;;;;5023023;28;20415;-71
2022/06/13 02:40:05;;;;;;;20.65;18.70;;;9.90;99.90;;;;;;5011465;28;20045;-71
2022/06/13 02:42:54;;;;;;;23.00;19.15;;;9.80;99.90;;;;;;5019204;28;20049;-73
2022/06/13 02:45:26;;;;;;;20.42;18.48;;;9.70;99.90;;;;;;5004110;28;20107;-72
2022/06/13 02:47:59;;;;;;;19.92;18.13;;;9.70;99.90;;;;;;5022419;28;20951;-72
2022/06/13 02:50:41;;;;;;;19.88;17.98;;;9.80;99.90;;;;;;5012184;28;20133;-71
2022/06/13 02:53:26;;;;;;;20.65;18.55;;;9.70;99.90;;;;;;5022309;28;20077;-72
2022/06/13 02:56:08;;;;;;;18.92;17.33;;;9.70;99.90;;;;;;5022293;28;20543;-72
2022/06/13 02:59:04;;;;;;;19.35;17.45;;;9.70;99.90;;;;;;5011894;28;20070;-72
2022/06/13 03:01:39;;;;;;;17.35;15.73;;;9.70;99.90;;;;;;5009434;28;20042;-72
2022/06/13 03:04:13;;;;;;;;;;;9.70;99.90;;;;;;5017794;28;20289;-71
2022/06/13 03:07:01;;;;;;;18.02;16.35;;;9.70;99.90;;;;;;5022242;28;19928;-71
2022/06/13 03:09:35;;;;;;;18.95;16.70;;;9.70;99.90;;;;;;5019016;28;20284;-72
2022/06/13 03:12:25;;;;;;;18.90;16.90;;;9.60;99.90;;;;;;5008835;28;20464;-72
2022/06/13 03:15:07;;;;;;;18.98;17.42;;;9.60;99.90;;;;;;5003222;28;20568;-72
2022/06/13 03:17:49;;;;;;;19.13;17.40;;;9.60;99.90;;;;;;5009221;28;20058;-72
2022/06/13 03:20:36;;;;;;;19.98;18.27;;;9.70;99.90;;;;;;5017631;28;20181;-72
2022/06/13 03:23:12;;;;;;;21.23;17.50;;;9.60;99.90;;;;;;5020666;28;20455;-73
2022/06/13 03:26:28;;;;;;;20.35;16.13;;;9.50;99.90;;;;;;5013690;28;20096;-70
2022/06/13 03:29:03;;;;;;;18.57;16.67;;;9.60;99.90;;;;;;4975202;28;20197;-72
2022/06/13 03:31:40;;;;;;;18.85;16.85;;;9.50;99.90;;;;;;5019600;28;20802;-72
2022/06/13 03:34:19;;;;;;;18.90;17.00;;;9.50;99.90;;;;;;5025210;28;20152;-74
2022/06/13 03:37:20;;;;;;;20.33;16.27;;;9.50;99.90;;;;;;5025930;28;20112;-72
2022/06/13 03:39:55;;;;;;;21.25;15.57;;;9.60;99.90;;;;;;4980582;28;20468;-72
2022/06/13 03:42:31;;;;;;;25.88;16.77;;;9.60;99.90;;;;;;5017131;28;20511;-72
2022/06/13 03:45:08;;;;;;;17.77;16.20;;;9.70;99.90;;;;;;5008818;28;20103;-72
2022/06/13 03:47:47;;;;;;;20.35;15.60;;;9.70;99.90;;;;;;5002428;28;20058;-72
2022/06/13 03:50:53;;;;;;;17.48;15.68;;;9.60;99.90;;;;;;4990411;28;20062;-71
2022/06/13 03:53:21;;;;;;;;;;;9.60;99.90;;;;;;4969699;28;20062;-72
2022/06/13 03:56:00;;;;;;;18.00;16.08;;;9.70;99.90;;;;;;4968655;28;20455;-72
2022/06/13 03:58:32;;;;;;;18.85;17.15;;;9.60;99.90;;;;;;4992438;28;20453;-73
2022/06/13 04:01:10;;;;;;;19.20;17.25;;;9.60;99.90;;;;;;5002861;28;20042;-73
2022/06/13 04:03:37;;;;;;;17.42;15.75;;;9.60;99.90;;;;;;5005468;28;20042;-72
2022/06/13 04:06:25;;;;;;;17.60;15.88;;;9.60;99.90;;;;;;5004317;28;20052;-72
2022/06/13 04:08:52;;;;;;;17.55;15.95;;;9.70;99.90;;;;;;5005681;28;20054;-72
2022/06/13 04:11:30;;;;;;;18.10;16.40;;;9.70;99.90;;;;;;4995001;28;20042;-72
2022/06/13 04:14:32;;;;;;;18.30;16.67;;;9.70;99.90;;;;;;4984605;28;20090;-73
2022/06/13 04:17:07;;;;;;;18.38;16.77;;;9.80;99.90;;;;;;4985751;28;20046;-72
2022/06/13 04:19:53;;;;;;;18.90;17.15;;;9.90;99.90;;;;;;4994369;28;20046;-72
2022/06/13 04:22:20;;;;;;;22.90;18.17;;;10.10;99.90;;;;;;4968250;28;20424;-70
2022/06/13 04:25:02;;;;;;;19.95;18.17;;;10.20;99.90;;;;;;4991823;28;20485;-73
2022/06/13 04:27:38;;;;;;;19.25;17.42;;;10.20;99.90;;;;;;4997174;28;20046;-72
2022/06/13 04:30:14;;;;;;;18.58;16.67;;;10.10;99.90;;;;;;4990485;28;20104;-72
2022/06/13 04:32:50;;;;;;;19.08;17.15;;;10.10;99.90;;;;;;4990806;28;20050;-72
2022/06/13 04:35:19;;;;;;;18.98;17.10;;;10.10;99.90;;;;;;4984326;28;20512;-71
2022/06/13 04:37:47;;;;;;;18.50;16.95;;;10.20;99.90;;;;;;4984604;28;20073;-72
2022/06/13 04:40:20;;;;;;;19.58;17.77;;;10.30;99.90;;;;;;4980332;28;20042;-71
2022/06/13 04:42:49;;;;;;;19.50;17.40;;;10.30;99.90;;;;;;4974496;28;20046;-72
2022/06/13 04:45:28;;;;;;;19.73;17.88;;;10.50;99.90;;;;;;4978683;28;20254;-72
2022/06/13 04:47:57;;;;;;;20.75;18.95;;;10.70;99.90;;;;;;5006638;28;20049;-71
2022/06/13 04:50:47;;;;;;;22.25;19.58;;;10.80;99.90;;;;;;5015035;28;20053;-72
2022/06/13 04:53:24;;;;;;;26.38;21.02;;;10.90;99.90;;;;;;5003964;28;20046;-72
2022/06/13 04:55:53;;;;;;;22.70;20.58;;;11.00;99.90;;;;;;5008738;28;20543;-72
2022/06/13 04:58:33;;;;;;;26.60;20.05;;;11.10;99.90;;;;;;4995584;28;20046;-73
2022/06/13 05:01:22;;;;;;;24.27;19.90;;;11.30;99.90;;;;;;5011118;28;20107;-72
2022/06/13 05:03:50;;;;;;;24.10;20.92;;;11.50;99.90;;;;;;5033840;28;20721;-72
2022/06/13 05:06:39;;;;;;;22.52;20.38;;;11.60;99.90;;;;;;5025384;28;20516;-71
2022/06/13 05:09:09;;;;;;;22.92;20.48;;;11.70;99.90;;;;;;5027437;28;20487;-72
2022/06/13 05:11:58;;;;;;;22.60;20.63;;;11.80;99.90;;;;;;5040290;28;20098;-72
2022/06/13 05:14:34;;;;;;;24.98;20.50;;;11.80;99.90;;;;;;5024214;28;20111;-71
2022/06/13 05:17:19;;;;;;;23.42;20.48;;;11.80;99.90;;;;;;5024106;28;20475;-71
2022/06/13 05:19:54;;;;;;;28.45;21.98;;;11.80;99.90;;;;;;5004445;28;20049;-72
2022/06/13 05:22:28;;;;;;;28.17;21.35;;;11.80;99.90;;;;;;5009136;28;20500;-71
2022/06/13 05:25:30;;;;;;;21.95;20.02;;;12.00;99.90;;;;;;5019870;28;20053;-72
2022/06/13 05:27:56;;;;;;;23.15;20.65;;;12.20;99.90;;;;;;4986133;28;20451;-72
2022/06/13 05:30:24;;;;;;;23.45;20.08;;;12.30;99.90;;;;;;5007654;28;20128;-71
2022/06/13 05:32:51;;;;;;;25.58;22.08;;;12.30;99.90;;;;;;4996457;28;20215;-72
2022/06/13 05:35:31;;;;;;;23.75;21.23;;;12.40;99.90;;;;;;5022554;28;20111;-72
2022/06/13 05:38:00;;;;;;;24.58;22.05;;;12.40;99.90;;;;;;5023209;28;20049;-72
2022/06/13 05:40:27;;;;;;;26.80;21.92;;;12.40;99.90;;;;;;5006314;28;20046;-73
2022/06/13 05:42:54;;;;;;;27.33;22.75;;;12.30;99.90;;;;;;5001053;28;20140;-72
2022/06/13 05:45:23;;;;;;;28.42;23.20;;;12.20;99.90;;;;;;5005871;28;20071;-72
2022/06/13 05:47:53;;;;;;;29.90;22.85;;;12.20;99.90;;;;;;5005597;28;20129;-73
2022/06/13 05:50:29;;;;;;;26.83;22.83;;;12.20;99.90;;;;;;5014845;28;20050;-72
2022/06/13 05:52:55;;;;;;;26.73;22.77;;;12.20;99.90;;;;;;5018322;28;20112;-72
2022/06/13 05:55:22;;;;;;;23.92;21.50;;;12.20;99.90;;;;;;5019303;28;20465;-71
2022/06/13 05:58:00;;;;;;;26.80;22.02;;;12.10;99.90;;;;;;5035289;28;20053;-71
2022/06/13 06:00:33;;;;;;;30.55;22.27;;;12.10;99.90;;;;;;5004481;28;20049;-72
2022/06/13 06:03:00;;;;;;;25.60;22.00;;;12.10;99.90;;;;;;5014335;28;20053;-73
2022/06/13 06:05:26;;;;;;;34.83;22.35;;;12.10;99.90;;;;;;5020553;28;20107;-72
2022/06/13 06:07:53;;;;;;;24.08;21.45;;;12.00;99.90;;;;;;5020853;28;20061;-72
2022/06/13 06:10:26;;;;;;;29.85;21.80;;;11.90;99.90;;;;;;5004365;28;20069;-73
2022/06/13 06:12:53;;;;;;;31.08;20.08;;;11.80;99.90;;;;;;5022316;28;20445;-73
2022/06/13 06:15:20;;;;;;;31.92;21.33;;;11.70;99.90;;;;;;5020819;28;20060;-71
2022/06/13 06:17:47;;;;;;;34.00;21.33;;;11.80;99.90;;;;;;5022034;28;20425;-73
2022/06/13 06:20:19;;;;;;;30.35;20.70;;;11.70;99.90;;;;;;5008589;28;20045;-71
2022/06/13 06:22:46;;;;;;;29.85;19.65;;;11.80;99.90;;;;;;5007748;28;20045;-73
2022/06/13 06:25:13;;;;;;;20.63;18.63;;;11.90;99.90;;;;;;5015590;28;20077;-73
2022/06/13 06:27:40;;;;;;;26.35;19.33;;;12.10;99.90;;;;;;5010592;28;20104;-72
2022/06/13 06:30:08;;;;;;;27.70;19.33;;;12.30;99.90;;;;;;5009431;28;20250;-73
2022/06/13 06:32:34;;;;;;;25.30;18.27;;;12.40;99.90;;;;;;5001988;28;20568;-72
2022/06/13 06:35:01;;;;;;;21.25;19.05;;;12.50;99.90;;;;;;5012977;28;20121;-72
2022/06/13 06:37:28;;;;;;;19.13;17.13;;;12.60;99.90;;;;;;5022842;28;20057;-72
2022/06/13 06:39:58;;;;;;;25.17;19.92;;;12.70;99.90;;;;;;5022075;28;20081;-72
2022/06/13 06:42:25;;;;;;;21.00;19.02;;;12.90;99.90;;;;;;5018390;28;20046;-73
2022/06/13 06:45:13;;;;;;;23.42;21.23;;;13.10;99.90;;;;;;5021224;28;20042;-73
2022/06/13 06:47:40;;;;;;;29.95;20.42;;;13.30;99.90;;;;;;5024149;28;20282;-73
2022/06/13 06:50:15;;;;;;;21.67;19.73;;;13.70;99.90;;;;;;5020752;28;20619;-72
2022/06/13 06:52:42;;;;;;;;;;;14.00;99.90;;;;;;5023039;28;20354;-72
2022/06/13 07:00:45;;;;;;;24.55;22.17;;;15.00;99.90;;;;;;5025371;28;20460;-73
2022/06/13 07:03:13;;;;;;;24.90;22.65;;;15.30;99.90;;;;;;5017140;28;20099;-73
2022/06/13 07:05:40;;;;;;;24.15;22.35;;;15.60;99.90;;;;;;5013887;28;20054;-73
2022/06/13 07:08:14;;;;;;;24.02;22.17;;;15.80;99.90;;;;;;5009055;28;20053;-72
2022/06/13 07:10:45;;;;;;;23.73;21.92;;;15.90;99.90;;;;;;5006974;28;20472;-72
2022/06/13 07:13:12;;;;;;;23.55;21.77;;;15.90;99.90;;;;;;5021892;28;20080;-73
2022/06/13 07:15:48;;;;;;;24.08;22.40;;;16.40;99.90;;;;;;5028223;28;20054;-73
2022/06/13 07:18:14;;;;;;;24.50;22.67;;;16.50;99.90;;;;;;5029437;28;20087;-73
2022/06/13 07:20:41;;;;;;;24.00;22.35;;;16.60;99.90;;;;;;5020295;28;20522;-72
2022/06/13 07:23:08;;;;;;;26.23;24.60;;;16.40;99.90;;;;;;5026060;28;20056;-73
2022/06/13 07:25:35;;;;;;;26.05;24.30;;;16.20;99.90;;;;;;5027811;28;20144;-73
2022/06/13 07:28:02;;;;;;;25.10;23.13;;;16.20;99.90;;;;;;5020617;28;20049;-73
2022/06/13 07:30:29;;;;;;;26.45;24.67;;;16.20;99.90;;;;;;5011024;28;20049;-73
2022/06/13 07:32:56;;;;;;;24.73;23.17;;;16.30;99.90;;;;;;5011632;28;20034;-72
2022/06/13 07:35:25;;;;;;;25.35;23.65;;;16.50;99.90;;;;;;5016231;28;20534;-73
2022/06/13 07:40:38;;;;;;;26.42;24.27;;;16.10;99.90;;;;;;5009261;28;20131;-73
2022/06/13 07:43:07;;;;;;;26.35;24.27;;;16.00;99.90;;;;;;5020788;28;20494;-74
2022/06/13 07:45:39;;;;;;;26.15;24.13;;;16.10;99.90;;;;;;5018662;28;20296;-73
2022/06/13 07:48:17;;;;;;;26.38;24.38;;;16.00;99.90;;;;;;5026028;28;20597;-73
2022/06/13 07:50:44;;;;;;;25.52;23.63;;;15.90;99.90;;;;;;5018866;28;20052;-77
2022/06/13 07:53:11;;;;;;;25.40;23.67;;;15.90;99.90;;;;;;5027242;28;20048;-76
2022/06/13 07:55:38;;;;;;;26.70;24.63;;;15.80;99.90;;;;;;5025276;28;20049;-76
2022/06/13 07:58:11;;;;;;;26.30;24.45;;;15.90;99.90;;;;;;5021353;28;20451;-76
2022/06/13 08:00:38;;;;;;;26.65;24.48;;;16.00;99.90;;;;;;5007774;28;20096;-76
2022/06/13 08:03:05;;;;;;;25.90;23.85;;;15.90;99.90;;;;;;4985902;28;20115;-76
2022/06/13 08:05:32;;;;;;;25.20;23.50;;;15.80;99.90;;;;;;5021393;28;20065;-76
2022/06/13 08:07:59;;;;;;;25.83;24.02;;;15.70;99.90;;;;;;5015292;28;20053;-76
2022/06/13 08:10:27;;;;;;;25.60;23.90;;;15.80;99.90;;;;;;5006975;28;20045;-76
2022/06/13 08:12:53;;;;;;;25.00;23.10;;;15.90;99.90;;;;;;5023282;28;20061;-74
2022/06/13 08:15:24;;;;;;;26.13;23.92;;;15.80;99.90;;;;;;5023568;28;20492;-75
2022/06/13 08:17:51;;;;;;;25.35;23.42;;;15.70;99.90;;;;;;5030602;28;20061;-76
2022/06/13 08:20:17;;;;;;;26.45;24.52;;;15.60;99.90;;;;;;5014653;28;20072;-75
2022/06/13 08:22:46;;;;;;;26.27;24.33;;;15.70;99.90;;;;;;5025124;28;20103;-75
2022/06/13 08:25:34;;;;;;;22.88;21.23;;;16.00;99.90;;;;;;5023427;28;20044;-75
2022/06/13 08:28:01;;;;;;;24.85;22.65;;;16.60;99.90;;;;;;5003565;28;20038;-74
2022/06/13 08:30:38;;;;;;;23.52;21.92;;;16.70;99.90;;;;;;5019076;28;20263;-74
2022/06/13 08:33:05;;;;;;;24.67;22.73;;;16.70;99.90;;;;;;5023677;28;20275;-76
2022/06/13 08:35:33;;;;;;;25.30;23.15;;;16.50;99.90;;;;;;5002471;28;20130;-75
2022/06/13 08:38:03;;;;;;;24.98;23.38;;;16.20;99.90;;;;;;5014132;28;20053;-75
2022/06/13 08:40:46;;;;;;;23.50;21.85;;;16.40;99.90;;;;;;5015106;28;20450;-75
2022/06/13 08:43:31;;;;;;;25.50;23.48;;;17.10;99.90;;;;;;5022880;28;20504;-74
2022/06/13 08:46:24;;;;;;;25.70;23.45;;;17.00;99.90;;;;;;5021922;28;20045;-73
2022/06/13 08:49:04;;;;;;;24.77;23.05;;;16.80;99.90;;;;;;5018291;28;20061;-73
2022/06/13 08:51:45;;;;;;;24.63;22.45;;;17.30;99.90;;;;;;5017676;28;20424;-73
2022/06/13 08:54:21;;;;;;;23.42;21.42;;;17.70;99.90;;;;;;5022572;28;20053;-74
2022/06/13 08:56:49;;;;;;;25.70;23.50;;;17.90;99.90;;;;;;5018753;28;20535;-72
2022/06/13 08:59:25;;;;;;;26.33;23.70;;;17.60;99.90;;;;;;5010152;28;20142;-73
2022/06/13 09:02:00;;;;;;;26.13;23.80;;;17.50;99.90;;;;;;5022008;28;20057;-73
2022/06/13 09:04:34;;;;;;;25.92;23.92;;;17.90;99.90;;;;;;5021272;28;20139;-72
2022/06/13 09:07:11;;;;;;;28.13;25.55;;;18.20;99.90;;;;;;5022720;28;20276;-73
2022/06/13 09:09:45;;;;;;;28.08;25.40;;;18.40;99.90;;;;;;5035730;28;20060;-73
2022/06/13 09:12:28;;;;;;;26.83;24.30;;;18.60;99.90;;;;;;5028395;28;20091;-73
2022/06/13 09:15:01;;;;;;;25.75;23.98;;;18.70;99.90;;;;;;5043761;28;20057;-74
2022/06/13 09:17:41;;;;;;;26.73;24.60;;;18.20;99.90;;;;;;5024686;28;20083;-73
2022/06/13 09:20:22;;;;;;;26.52;24.38;;;17.70;99.90;;;;;;5009723;28;20571;-73
2022/06/13 09:23:19;;;;;;;28.25;25.45;;;17.20;99.90;;;;;;5003298;28;20046;-73
2022/06/13 09:26:10;;;;;;;29.05;26.45;;;17.00;99.90;;;;;;5016972;28;20416;-72
2022/06/13 09:29:04;;;;;;;29.23;26.45;;;16.80;99.90;;;;;;5009683;28;20425;-73
2022/06/13 09:31:37;;;;;;;28.33;25.58;;;16.50;99.90;;;;;;5002610;28;20042;-73
2022/06/13 09:34:22;;;;;;;27.55;25.45;;;16.30;99.90;;;;;;5002208;28;20049;-73
2022/06/13 09:36:59;;;;;;;28.25;25.52;;;16.30;99.90;;;;;;5008409;28;20137;-73
2022/06/13 09:39:26;;;;;;;30.77;27.67;;;16.20;99.90;;;;;;5013453;28;20103;-73
2022/06/13 09:41:59;;;;;;;30.25;27.88;;;16.30;99.90;;;;;;4999993;28;20045;-73
2022/06/13 09:44:25;;;;;;;29.95;27.50;;;16.40;99.90;;;;;;5018490;28;20049;-73
2022/06/13 09:47:01;;;;;;;29.48;27.08;;;16.40;99.90;;;;;;5021016;28;20160;-72
2022/06/13 09:49:55;;;;;;;30.70;27.70;;;16.50;99.90;;;;;;5011470;28;20324;-73
2022/06/13 09:52:40;;;;;;;27.52;25.05;;;16.50;99.90;;;;;;5013458;28;20199;-73
2022/06/13 09:55:38;;;;;;;27.63;25.33;;;16.40;99.90;;;;;;5018732;28;20148;-72
2022/06/13 09:58:23;;;;;;;34.13;29.95;;;16.20;99.90;;;;;;5014723;28;20060;-75
2022/06/13 10:01:26;;;;;;;33.80;27.45;;;15.70;99.90;;;;;;5028922;28;20099;-76
2022/06/13 10:04:05;;;;;;;31.63;28.48;;;15.20;99.90;;;;;;5003031;28;20073;-75
2022/06/13 10:06:45;;;;;;;28.52;26.15;;;14.70;99.90;;;;;;5001357;28;20054;-75
2022/06/13 10:09:28;;;;;;;28.10;25.35;;;14.30;99.90;;;;;;5035329;28;20061;-74
2022/06/13 10:12:09;;;;;;;28.42;25.77;;;14.20;99.90;;;;;;5005986;28;20079;-74
2022/06/13 10:15:00;;;;;;;25.25;22.77;;;14.30;99.90;;;;;;5022253;28;20598;-74
2022/06/13 10:17:52;;;;;;;21.48;19.70;;;14.40;99.90;;;;;;5004368;28;20470;-74
2022/06/13 10:20:28;;;;;;;19.58;17.80;;;14.60;99.90;;;;;;5025792;28;20550;-73
2022/06/13 10:23:18;;;;;;;22.00;19.88;;;15.50;99.90;;;;;;5035719;28;20462;-72
2022/06/13 10:26:24;;;;;;;26.85;24.33;;;15.90;99.90;;;;;;5026792;28;20108;-72
2022/06/13 10:29:00;;;;;;;;;;;15.90;99.90;;;;;;5006479;28;20544;-73
2022/06/13 10:31:46;;;;;;;27.77;25.55;;;16.10;99.90;;;;;;5011263;28;20402;-72
2022/06/13 10:34:34;;;;;;;27.80;25.42;;;16.60;99.90;;;;;;5020158;28;20045;-71
2022/06/13 10:37:26;;;;;;;27.67;25.00;;;16.80;99.90;;;;;;5013404;28;20116;-72
2022/06/13 10:39:56;;;;;;;29.77;27.08;;;17.30;99.90;;;;;;5002149;28;20050;-73
2022/06/13 10:42:26;;;;;;;29.38;26.73;;;17.70;99.90;;;;;;5018561;28;20073;-72
2022/06/13 10:44:54;;;;;;;30.25;27.70;;;18.00;99.90;;;;;;5017562;28;20069;-72
2022/06/13 10:47:29;;;;;;;30.58;27.98;;;17.70;99.90;;;;;;5020312;28;20480;-73
2022/06/13 10:50:06;;;;;;;30.35;27.70;;;17.50;99.90;;;;;;5016885;28;20104;-73
2022/06/13 10:52:39;;;;;;;31.92;29.42;;;17.60;99.90;;;;;;5002167;28;20124;-72
2022/06/13 10:55:10;;;;;;;29.02;26.40;;;17.50;99.90;;;;;;5000504;28;20437;-73
2022/06/13 10:58:06;;;;;;;26.50;24.52;;;17.60;99.90;;;;;;4989390;28;20125;-73
2022/06/13 11:00:33;;;;;;;27.02;24.98;;;17.90;99.90;;;;;;5000738;28;20127;-73
2022/06/13 11:03:15;;;;;;;28.00;25.50;;;17.90;99.90;;;;;;5000486;28;20060;-73
2022/06/13 11:06:02;;;;;;;31.40;28.38;;;17.60;99.90;;;;;;5000010;28;20050;-73
2022/06/13 11:08:29;;;;;;;28.38;26.00;;;17.60;99.90;;;;;;5010104;28;20123;-73
2022/06/13 11:11:04;;;;;;;30.15;27.13;;;17.30;99.90;;;;;;5010710;28;20074;-73
2022/06/13 11:13:37;;;;;;;30.33;27.52;;;16.80;99.90;;;;;;5004525;28;20104;-73
2022/06/13 11:24:53;;;;;;;30.00;26.98;;;15.10;99.90;;;;;;5019275;28;20115;-74
2022/06/13 11:27:39;;;;;;;26.70;24.40;;;14.50;99.90;;;;;;5010309;28;20123;-74
2022/06/13 11:30:29;;;;;;;28.90;26.45;;;14.10;99.90;;;;;;5014637;28;20049;-74
2022/06/13 11:32:59;;;;;;;27.00;24.90;;;13.70;99.90;;;;;;5002211;28;20053;-73
2022/06/13 11:35:39;;;;;;;25.73;23.88;;;13.60;99.90;;;;;;5001946;28;20053;-75
2022/06/13 11:38:18;;;;;;;25.70;23.30;;;13.50;99.90;;;;;;5009058;28;20076;-74
2022/06/13 11:41:05;;;;;;;23.52;21.73;;;13.60;99.90;;;;;;5016458;28;20348;-74
2022/06/13 11:43:44;;;;;;;21.67;19.88;;;13.70;99.90;;;;;;5009367;28;20053;-73
2022/06/13 11:46:35;;;;;;;22.00;20.50;;;13.70;99.90;;;;;;5022776;28;20114;-74
2022/06/13 11:49:13;;;;;;;23.45;21.70;;;13.80;99.90;;;;;;5009193;28;20058;-73
2022/06/13 11:51:55;;;;;;;22.23;20.50;;;13.80;99.90;;;;;;5007249;28;20373;-72
2022/06/13 11:54:52;;;;;;;25.13;20.92;;;14.00;99.90;;;;;;5022761;28;20672;-74
2022/06/13 11:57:26;;;;;;;22.48;20.42;;;14.50;99.90;;;;;;5016238;28;20049;-73
2022/06/13 12:00:02;;;;;;;19.40;17.75;;;15.00;99.90;;;;;;5013655;28;20061;-72
2022/06/13 12:02:39;;;;;;;23.77;21.92;;;15.60;99.90;;;;;;5003031;28;20420;-73
2022/06/13 12:05:19;;;;;;;24.15;22.52;;;16.00;99.90;;;;;;4999326;28;20332;-72
2022/06/13 12:07:59;;;;;;;24.38;22.27;;;16.00;99.90;;;;;;5029204;28;20056;-73
2022/06/13 12:10:30;;;;;;;25.08;23.33;;;15.90;99.90;;;;;;5021136;28;20084;-73
2022/06/13 12:12:57;;;;;;;25.40;23.60;;;15.90;99.90;;;;;;5022066;28;20054;-74
2022/06/13 12:15:36;;;;;;;27.50;24.63;;;15.80;99.90;;;;;;5022967;28;20091;-72
2022/06/13 12:18:16;;;;;;;25.08;23.15;;;15.70;99.90;;;;;;5022955;28;20041;-72
2022/06/13 12:20:53;;;;;;;23.35;21.25;;;15.90;99.90;;;;;;5014036;28;20521;-72
2022/06/13 12:23:34;;;;;;;24.90;23.17;;;16.10;99.90;;;;;;5024199;28;20045;-73
2022/06/13 12:26:08;;;;;;;24.25;22.40;;;16.00;99.90;;;;;;5022539;28;20077;-75
2022/06/13 12:28:56;;;;;;;24.67;22.70;;;15.90;99.90;;;;;;5014394;28;20045;-72
2022/06/13 12:31:40;;;;;;;23.90;21.98;;;15.80;99.90;;;;;;5002677;28;20054;-73
2022/06/13 12:34:40;;;;;;;23.13;21.60;;;15.50;99.90;;;;;;5008132;28;20049;-72
2022/06/13 12:37:24;;;;;;;23.48;21.70;;;15.30;99.90;;;;;;5017055;28;20145;-72
2022/06/13 12:40:19;;;;;;;23.75;22.38;;;15.50;99.90;;;;;;5022605;28;20076;-73
2022/06/13 12:42:51;;;;;;;21.40;20.27;;;16.00;99.90;;;;;;5022419;28;20049;-73
2022/06/13 12:45:41;;;;;;;20.98;19.48;;;16.40;99.90;;;;;;5015070;28;20034;-72
2022/06/13 12:48:28;;;;;;;21.75;20.50;;;16.50;99.90;;;;;;5017449;28;20050;-73
2022/06/13 12:51:20;;;;;;;23.58;21.80;;;16.30;99.90;;;;;;5032140;28;20038;-73
2022/06/13 12:54:17;;;;;;;22.65;21.15;;;16.30;99.90;;;;;;5003249;28;20049;-73
2022/06/13 12:57:16;;;;;;;22.88;21.30;;;16.40;99.90;;;;;;5013029;28;20080;-73
2022/06/13 13:00:16;;;;;;;23.98;22.38;;;16.50;99.90;;;;;;5006295;28;20476;-74
2022/06/13 13:03:04;;;;;;;22.90;21.30;;;16.60;99.90;;;;;;5035797;28;20118;-73
2022/06/13 13:06:02;;;;;;;23.65;21.77;;;16.90;99.90;;;;;;5033329;28;20117;-73
2022/06/13 13:08:56;;;;;;;23.35;21.83;;;17.00;99.90;;;;;;5010803;28;20053;-73
2022/06/13 13:11:29;;;;;;;23.27;21.65;;;16.90;99.90;;;;;;5021483;28;20045;-73
2022/06/13 13:14:18;;;;;;;22.50;21.20;;;16.80;99.90;;;;;;5022261;28;20095;-73
2022/06/13 13:17:04;;;;;;;20.63;19.40;;;16.80;99.90;;;;;;5022191;28;20700;-73
2022/06/13 13:19:53;;;;;;;21.33;20.13;;;16.70;99.90;;;;;;5013410;28;20222;-74
2022/06/13 13:22:36;;;;;;;21.45;20.15;;;16.60;99.90;;;;;;5019328;28;20046;-73
2022/06/13 13:25:36;;;;;;;21.35;19.77;;;16.80;99.90;;;;;;5022516;28;20103;-74
2022/06/13 13:28:29;;;;;;;21.83;20.42;;;17.10;99.90;;;;;;5013084;28;20057;-74
2022/06/13 13:31:14;;;;;;;21.50;20.10;;;17.40;99.90;;;;;;5019283;28;20053;-74
2022/06/13 13:34:00;;;;;;;;;;;17.60;99.90;;;;;;5020968;28;20115;-74
2022/06/13 13:36:47;;;;;;;21.38;20.08;;;17.80;99.90;;;;;;5018979;28;19972;-73
2022/06/13 13:39:19;;;;;;;22.15;20.70;;;17.90;99.90;;;;;;5019720;28;20139;-72